sensor_id;sensor_type;location;lat;lon;timestamp;temperature;humidity
3418;DHT22;68007;51.312;12.372;2023-07-24T00:02:16;24.50;59.70
3418;DHT22;68007;51.312;12.372;2023-07-24T00:04:44;24.50;60.20
3418;DHT22;68007;51.312;12.372;2023-07-24T00:07:13;24.50;59.80
3418;DHT22;68007;51.312;12.372;2023-07-24T00:09:40;24.50;59.80
3418;DHT22;68007;51.312;12.372;2023-07-24T00:12:08;24.50;60.00
3418;DHT22;68007;51.312;12.372;2023-07-24T00:14:35;24.40;60.00
3418;DHT22;68007;51.312;12.372;2023-07-24T00:17:03;24.50;60.20
3418;DHT22;68007;51.312;12.372;2023-07-24T00:19:31;24.50;60.20
3418;DHT22;68007;51.312;12.372;2023-07-24T00:21:58;24.50;60.40
3418;DHT22;68007;51.312;12.372;2023-07-24T00:24:27;24.40;60.60
3418;DHT22;68007;51.312;12.372;2023-07-24T00:26:54;24.40;60.70
3418;DHT22;68007;51.312;12.372;2023-07-24T00:29:22;24.40;60.70
3418;DHT22;68007;51.312;12.372;2023-07-24T00:31:49;24.40;60.80
3418;DHT22;68007;51.312;12.372;2023-07-24T00:34:17;24.40;60.80
3418;DHT22;68007;51.312;12.372;2023-07-24T00:36:44;24.30;60.90
3418;DHT22;68007;51.312;12.372;2023-07-24T00:39:14;24.30;61.10
3418;DHT22;68007;51.312;12.372;2023-07-24T00:41:43;24.30;61.20
3418;DHT22;68007;51.312;12.372;2023-07-24T00:44:10;24.20;61.40
3418;DHT22;68007;51.312;12.372;2023-07-24T00:46:38;24.20;61.60
3418;DHT22;68007;51.312;12.372;2023-07-24T00:49:06;24.10;61.80
3418;DHT22;68007;51.312;12.372;2023-07-24T00:51:34;24.00;62.10
3418;DHT22;68007;51.312;12.372;2023-07-24T00:54:02;23.90;62.40
3418;DHT22;68007;51.312;12.372;2023-07-24T00:56:31;23.80;62.90
3418;DHT22;68007;51.312;12.372;2023-07-24T00:59:00;23.80;63.10
3418;DHT22;68007;51.312;12.372;2023-07-24T01:01:28;23.70;63.10
3418;DHT22;68007;51.312;12.372;2023-07-24T01:03:57;23.70;63.30
3418;DHT22;68007;51.312;12.372;2023-07-24T01:06:25;23.70;63.40
3418;DHT22;68007;51.312;12.372;2023-07-24T01:08:52;23.70;63.30
3418;DHT22;68007;51.312;12.372;2023-07-24T01:11:24;23.70;62.90
3418;DHT22;68007;51.312;12.372;2023-07-24T01:13:57;23.70;63.10
3418;DHT22;68007;51.312;12.372;2023-07-24T01:16:36;23.70;63.30
3418;DHT22;68007;51.312;12.372;2023-07-24T01:19:04;23.80;63.50
3418;DHT22;68007;51.312;12.372;2023-07-24T01:21:46;23.70;63.80
3418;DHT22;68007;51.312;12.372;2023-07-24T01:24:24;23.70;63.60
3418;DHT22;68007;51.312;12.372;2023-07-24T01:26:58;23.70;63.40
3418;DHT22;68007;51.312;12.372;2023-07-24T01:29:26;23.70;63.40
3418;DHT22;68007;51.312;12.372;2023-07-24T01:31:53;23.70;63.80
3418;DHT22;68007;51.312;12.372;2023-07-24T01:34:21;23.70;63.60
3418;DHT22;68007;51.312;12.372;2023-07-24T01:36:49;23.70;63.80
3418;DHT22;68007;51.312;12.372;2023-07-24T01:39:18;23.70;63.80
3418;DHT22;68007;51.312;12.372;2023-07-24T01:41:47;23.70;63.90
3418;DHT22;68007;51.312;12.372;2023-07-24T01:44:16;23.70;63.90
3418;DHT22;68007;51.312;12.372;2023-07-24T01:46:43;23.70;64.00
3418;DHT22;68007;51.312;12.372;2023-07-24T01:49:11;23.70;64.30
3418;DHT22;68007;51.312;12.372;2023-07-24T01:51:38;23.70;64.00
3418;DHT22;68007;51.312;12.372;2023-07-24T01:54:06;23.80;64.20
3418;DHT22;68007;51.312;12.372;2023-07-24T01:56:36;23.80;64.10
3418;DHT22;68007;51.312;12.372;2023-07-24T01:59:03;23.80;63.80
3418;DHT22;68007;51.312;12.372;2023-07-24T02:01:32;23.80;64.00
3418;DHT22;68007;51.312;12.372;2023-07-24T02:04:00;23.80;63.80
3418;DHT22;68007;51.312;12.372;2023-07-24T02:06:27;23.80;63.50
3418;DHT22;68007;51.312;12.372;2023-07-24T02:08:55;23.80;63.40
3418;DHT22;68007;51.312;12.372;2023-07-24T02:11:22;23.80;63.10
3418;DHT22;68007;51.312;12.372;2023-07-24T02:13:50;23.80;63.10
3418;DHT22;68007;51.312;12.372;2023-07-24T02:16:17;23.70;63.00
3418;DHT22;68007;51.312;12.372;2023-07-24T02:18:46;23.80;62.90
3418;DHT22;68007;51.312;12.372;2023-07-24T02:21:14;23.70;63.00
3418;DHT22;68007;51.312;12.372;2023-07-24T02:23:41;23.70;62.80
3418;DHT22;68007;51.312;12.372;2023-07-24T02:26:09;23.70;62.80
3418;DHT22;68007;51.312;12.372;2023-07-24T02:28:36;23.70;62.80
3418;DHT22;68007;51.312;12.372;2023-07-24T02:31:04;23.80;62.70
3418;DHT22;68007;51.312;12.372;2023-07-24T02:33:31;23.80;62.70
3418;DHT22;68007;51.312;12.372;2023-07-24T02:36:00;23.70;62.70
3418;DHT22;68007;51.312;12.372;2023-07-24T02:38:28;23.70;62.70
3418;DHT22;68007;51.312;12.372;2023-07-24T02:40:55;23.70;63.00
3418;DHT22;68007;51.312;12.372;2023-07-24T02:43:23;23.70;62.90
3418;DHT22;68007;51.312;12.372;2023-07-24T02:45:50;23.70;62.80
3418;DHT22;68007;51.312;12.372;2023-07-24T02:48:18;23.70;62.90
3418;DHT22;68007;51.312;12.372;2023-07-24T02:50:47;23.60;62.70
3418;DHT22;68007;51.312;12.372;2023-07-24T02:53:16;23.60;62.60
3418;DHT22;68007;51.312;12.372;2023-07-24T02:55:44;23.60;62.60
3418;DHT22;68007;51.312;12.372;2023-07-24T02:58:11;23.70;62.50
3418;DHT22;68007;51.312;12.372;2023-07-24T03:00:39;23.70;62.40
3418;DHT22;68007;51.312;12.372;2023-07-24T03:03:06;23.60;62.40
3418;DHT22;68007;51.312;12.372;2023-07-24T03:05:34;23.60;62.40
3418;DHT22;68007;51.312;12.372;2023-07-24T03:08:02;23.60;62.30
3418;DHT22;68007;51.312;12.372;2023-07-24T03:10:32;23.60;62.40
3418;DHT22;68007;51.312;12.372;2023-07-24T03:12:59;23.60;62.30
3418;DHT22;68007;51.312;12.372;2023-07-24T03:15:27;23.60;62.50
3418;DHT22;68007;51.312;12.372;2023-07-24T03:17:55;23.60;62.40
3418;DHT22;68007;51.312;12.372;2023-07-24T03:20:22;23.60;62.50
3418;DHT22;68007;51.312;12.372;2023-07-24T03:22:50;23.50;62.50
3418;DHT22;68007;51.312;12.372;2023-07-24T03:25:17;23.60;62.60
3418;DHT22;68007;51.312;12.372;2023-07-24T03:27:46;23.50;62.60
3418;DHT22;68007;51.312;12.372;2023-07-24T03:30:13;23.50;62.50
3418;DHT22;68007;51.312;12.372;2023-07-24T03:32:41;23.50;62.50
3418;DHT22;68007;51.312;12.372;2023-07-24T03:35:08;23.50;62.60
3418;DHT22;68007;51.312;12.372;2023-07-24T03:37:36;23.40;62.50
3418;DHT22;68007;51.312;12.372;2023-07-24T03:40:04;23.40;62.60
3418;DHT22;68007;51.312;12.372;2023-07-24T03:42:32;23.40;62.60
3418;DHT22;68007;51.312;12.372;2023-07-24T03:45:01;23.40;62.60
3418;DHT22;68007;51.312;12.372;2023-07-24T03:47:28;23.40;62.40
3418;DHT22;68007;51.312;12.372;2023-07-24T03:49:56;23.40;62.40
3418;DHT22;68007;51.312;12.372;2023-07-24T03:52:23;23.30;62.30
3418;DHT22;68007;51.312;12.372;2023-07-24T03:54:51;23.40;62.20
3418;DHT22;68007;51.312;12.372;2023-07-24T03:57:19;23.40;62.10
3418;DHT22;68007;51.312;12.372;2023-07-24T03:59:46;23.40;62.10
3418;DHT22;68007;51.312;12.372;2023-07-24T04:02:15;23.40;62.80
3418;DHT22;68007;51.312;12.372;2023-07-24T04:04:43;23.30;62.00
3418;DHT22;68007;51.312;12.372;2023-07-24T04:07:10;23.30;63.10
3418;DHT22;68007;51.312;12.372;2023-07-24T04:09:38;23.30;62.30
3418;DHT22;68007;51.312;12.372;2023-07-24T04:12:05;23.30;62.60
3418;DHT22;68007;51.312;12.372;2023-07-24T04:14:33;23.30;62.30
3418;DHT22;68007;51.312;12.372;2023-07-24T04:17:00;23.30;62.50
3418;DHT22;68007;51.312;12.372;2023-07-24T04:19:29;23.30;62.20
3418;DHT22;68007;51.312;12.372;2023-07-24T04:21:57;23.40;62.30
3418;DHT22;68007;51.312;12.372;2023-07-24T04:24:24;23.40;62.10
3418;DHT22;68007;51.312;12.372;2023-07-24T04:26:52;23.40;62.00
3418;DHT22;68007;51.312;12.372;2023-07-24T04:29:20;23.40;61.80
3418;DHT22;68007;51.312;12.372;2023-07-24T04:31:49;23.40;61.80
3418;DHT22;68007;51.312;12.372;2023-07-24T04:34:17;23.30;61.80
3418;DHT22;68007;51.312;12.372;2023-07-24T04:36:46;23.40;61.80
3418;DHT22;68007;51.312;12.372;2023-07-24T04:39:13;23.40;62.00
3418;DHT22;68007;51.312;12.372;2023-07-24T04:41:41;23.30;62.00
3418;DHT22;68007;51.312;12.372;2023-07-24T04:44:08;23.30;62.30
3418;DHT22;68007;51.312;12.372;2023-07-24T04:46:36;23.30;62.30
3418;DHT22;68007;51.312;12.372;2023-07-24T04:49:03;23.30;62.30
3418;DHT22;68007;51.312;12.372;2023-07-24T04:51:31;23.30;62.60
3418;DHT22;68007;51.312;12.372;2023-07-24T04:54:00;23.30;62.90
3418;DHT22;68007;51.312;12.372;2023-07-24T04:56:27;23.40;62.70
3418;DHT22;68007;51.312;12.372;2023-07-24T04:58:55;23.40;63.10
3418;DHT22;68007;51.312;12.372;2023-07-24T05:01:22;23.30;63.50
3418;DHT22;68007;51.312;12.372;2023-07-24T05:03:50;23.30;63.40
3418;DHT22;68007;51.312;12.372;2023-07-24T05:06:17;23.30;63.10
3418;DHT22;68007;51.312;12.372;2023-07-24T05:08:45;23.40;63.20
3418;DHT22;68007;51.312;12.372;2023-07-24T05:11:14;23.40;63.20
3418;DHT22;68007;51.312;12.372;2023-07-24T05:13:41;23.40;63.20
3418;DHT22;68007;51.312;12.372;2023-07-24T05:16:09;23.40;63.00
3418;DHT22;68007;51.312;12.372;2023-07-24T05:18:36;23.40;62.90
3418;DHT22;68007;51.312;12.372;2023-07-24T05:21:04;23.40;62.70
3418;DHT22;68007;51.312;12.372;2023-07-24T05:23:31;23.40;62.60
3418;DHT22;68007;51.312;12.372;2023-07-24T05:25:59;23.40;62.50
3418;DHT22;68007;51.312;12.372;2023-07-24T05:28:29;23.40;62.60
3418;DHT22;68007;51.312;12.372;2023-07-24T05:31:00;23.40;62.30
3418;DHT22;68007;51.312;12.372;2023-07-24T05:33:28;23.40;62.20
3418;DHT22;68007;51.312;12.372;2023-07-24T05:35:58;23.40;62.20
3418;DHT22;68007;51.312;12.372;2023-07-24T05:38:25;23.40;62.10
3418;DHT22;68007;51.312;12.372;2023-07-24T05:40:56;23.40;62.10
3418;DHT22;68007;51.312;12.372;2023-07-24T05:43:24;23.40;62.00
3418;DHT22;68007;51.312;12.372;2023-07-24T05:45:53;23.40;62.10
3418;DHT22;68007;51.312;12.372;2023-07-24T05:48:21;23.40;62.10
3418;DHT22;68007;51.312;12.372;2023-07-24T05:50:49;23.40;62.10
3418;DHT22;68007;51.312;12.372;2023-07-24T05:53:17;23.50;62.00
3418;DHT22;68007;51.312;12.372;2023-07-24T05:55:44;23.50;62.10
3418;DHT22;68007;51.312;12.372;2023-07-24T05:58:12;23.50;62.00
3418;DHT22;68007;51.312;12.372;2023-07-24T06:00:39;23.50;62.10
3418;DHT22;68007;51.312;12.372;2023-07-24T06:03:08;23.50;62.10
3418;DHT22;68007;51.312;12.372;2023-07-24T06:05:36;23.50;62.10
3418;DHT22;68007;51.312;12.372;2023-07-24T06:08:03;23.50;62.10
3418;DHT22;68007;51.312;12.372;2023-07-24T06:10:31;23.50;62.20
3418;DHT22;68007;51.312;12.372;2023-07-24T06:12:58;23.50;62.00
3418;DHT22;68007;51.312;12.372;2023-07-24T06:15:26;23.50;62.10
3418;DHT22;68007;51.312;12.372;2023-07-24T06:17:53;23.50;61.80
3418;DHT22;68007;51.312;12.372;2023-07-24T06:20:22;23.50;61.50
3418;DHT22;68007;51.312;12.372;2023-07-24T06:22:50;23.50;61.70
3418;DHT22;68007;51.312;12.372;2023-07-24T06:25:17;23.50;61.70
3418;DHT22;68007;51.312;12.372;2023-07-24T06:27:45;23.50;61.60
3418;DHT22;68007;51.312;12.372;2023-07-24T06:30:12;23.50;61.70
3418;DHT22;68007;51.312;12.372;2023-07-24T06:32:40;23.60;61.90
3418;DHT22;68007;51.312;12.372;2023-07-24T06:35:08;23.60;61.80
3418;DHT22;68007;51.312;12.372;2023-07-24T06:37:37;23.60;61.70
3418;DHT22;68007;51.312;12.372;2023-07-24T06:40:06;23.60;61.60
3418;DHT22;68007;51.312;12.372;2023-07-24T06:42:34;23.60;61.70
3418;DHT22;68007;51.312;12.372;2023-07-24T06:45:01;23.60;61.50
3418;DHT22;68007;51.312;12.372;2023-07-24T06:47:29;23.60;60.90
3418;DHT22;68007;51.312;12.372;2023-07-24T06:49:56;23.60;61.10
3418;DHT22;68007;51.312;12.372;2023-07-24T06:52:24;23.60;61.20
3418;DHT22;68007;51.312;12.372;2023-07-24T06:54:52;23.60;61.10
3418;DHT22;68007;51.312;12.372;2023-07-24T06:57:20;23.70;61.10
3418;DHT22;68007;51.312;12.372;2023-07-24T06:59:47;23.70;61.10
3418;DHT22;68007;51.312;12.372;2023-07-24T07:02:15;23.70;60.90
3418;DHT22;68007;51.312;12.372;2023-07-24T07:04:43;23.70;60.80
3418;DHT22;68007;51.312;12.372;2023-07-24T07:07:10;23.70;60.90
3418;DHT22;68007;51.312;12.372;2023-07-24T07:09:38;23.80;60.70
3418;DHT22;68007;51.312;12.372;2023-07-24T07:12:07;23.80;61.00
3418;DHT22;68007;51.312;12.372;2023-07-24T07:14:35;23.90;60.90
3418;DHT22;68007;51.312;12.372;2023-07-24T07:17:02;23.90;60.80
3418;DHT22;68007;51.312;12.372;2023-07-24T07:19:30;23.90;61.00
3418;DHT22;68007;51.312;12.372;2023-07-24T07:21:57;23.90;61.70
3418;DHT22;68007;51.312;12.372;2023-07-24T07:24:25;24.00;61.80
3418;DHT22;68007;51.312;12.372;2023-07-24T07:26:52;24.00;61.00
3418;DHT22;68007;51.312;12.372;2023-07-24T07:29:21;24.10;60.80
3418;DHT22;68007;51.312;12.372;2023-07-24T07:31:49;24.10;60.80
3418;DHT22;68007;51.312;12.372;2023-07-24T07:34:16;24.10;60.50
3418;DHT22;68007;51.312;12.372;2023-07-24T07:36:44;24.10;60.50
3418;DHT22;68007;51.312;12.372;2023-07-24T07:39:11;24.20;60.70
3418;DHT22;68007;51.312;12.372;2023-07-24T07:41:39;24.20;60.60
3418;DHT22;68007;51.312;12.372;2023-07-24T07:44:06;24.20;60.10
3418;DHT22;68007;51.312;12.372;2023-07-24T07:46:35;24.20;60.30
3418;DHT22;68007;51.312;12.372;2023-07-24T07:49:03;24.20;60.00
3418;DHT22;68007;51.312;12.372;2023-07-24T07:51:30;24.20;60.00
3418;DHT22;68007;51.312;12.372;2023-07-24T07:53:57;24.20;60.60
3418;DHT22;68007;51.312;12.372;2023-07-24T07:56:25;24.20;60.10
3418;DHT22;68007;51.312;12.372;2023-07-24T07:58:52;24.30;60.00
3418;DHT22;68007;51.312;12.372;2023-07-24T08:01:20;24.40;59.80
3418;DHT22;68007;51.312;12.372;2023-07-24T08:03:49;24.40;59.80
3418;DHT22;68007;51.312;12.372;2023-07-24T08:06:16;24.50;59.50
3418;DHT22;68007;51.312;12.372;2023-07-24T08:08:44;24.50;59.80
3418;DHT22;68007;51.312;12.372;2023-07-24T08:11:11;24.50;59.80
3418;DHT22;68007;51.312;12.372;2023-07-24T08:13:39;24.50;59.80
3418;DHT22;68007;51.312;12.372;2023-07-24T08:16:12;24.60;60.00
3418;DHT22;68007;51.312;12.372;2023-07-24T08:18:44;24.70;59.80
3418;DHT22;68007;51.312;12.372;2023-07-24T08:21:14;24.70;60.00
3418;DHT22;68007;51.312;12.372;2023-07-24T08:23:41;24.70;59.60
3418;DHT22;68007;51.312;12.372;2023-07-24T08:26:09;24.70;59.20
3418;DHT22;68007;51.312;12.372;2023-07-24T08:28:37;24.70;58.90
3418;DHT22;68007;51.312;12.372;2023-07-24T08:31:08;24.80;59.00
3418;DHT22;68007;51.312;12.372;2023-07-24T08:33:36;24.80;59.00
3418;DHT22;68007;51.312;12.372;2023-07-24T08:36:05;24.80;59.10
3418;DHT22;68007;51.312;12.372;2023-07-24T08:38:34;24.90;59.00
3418;DHT22;68007;51.312;12.372;2023-07-24T08:41:06;24.90;58.60
3418;DHT22;68007;51.312;12.372;2023-07-24T08:43:35;24.90;58.10
3418;DHT22;68007;51.312;12.372;2023-07-24T08:46:04;25.00;58.40
3418;DHT22;68007;51.312;12.372;2023-07-24T08:48:32;25.00;58.10
3418;DHT22;68007;51.312;12.372;2023-07-24T08:51:02;25.00;58.20
3418;DHT22;68007;51.312;12.372;2023-07-24T08:53:30;25.10;58.40
3418;DHT22;68007;51.312;12.372;2023-07-24T08:55:59;25.10;57.50
3418;DHT22;68007;51.312;12.372;2023-07-24T08:58:27;25.20;57.70
3418;DHT22;68007;51.312;12.372;2023-07-24T09:00:56;25.20;58.10
3418;DHT22;68007;51.312;12.372;2023-07-24T09:03:24;25.30;58.40
3418;DHT22;68007;51.312;12.372;2023-07-24T09:05:52;25.30;58.30
3418;DHT22;68007;51.312;12.372;2023-07-24T09:08:28;25.40;58.00
3418;DHT22;68007;51.312;12.372;2023-07-24T09:10:56;25.50;57.90
3418;DHT22;68007;51.312;12.372;2023-07-24T09:13:25;25.50;57.80
3418;DHT22;68007;51.312;12.372;2023-07-24T09:15:53;25.60;58.00
3418;DHT22;68007;51.312;12.372;2023-07-24T09:18:21;25.60;58.00
3418;DHT22;68007;51.312;12.372;2023-07-24T09:20:49;25.60;58.10
3418;DHT22;68007;51.312;12.372;2023-07-24T09:23:25;25.70;57.90
3418;DHT22;68007;51.312;12.372;2023-07-24T09:25:54;25.80;57.70
3418;DHT22;68007;51.312;12.372;2023-07-24T09:28:21;25.80;57.30
3418;DHT22;68007;51.312;12.372;2023-07-24T09:30:54;25.80;57.00
3418;DHT22;68007;51.312;12.372;2023-07-24T09:33:22;25.80;56.50
3418;DHT22;68007;51.312;12.372;2023-07-24T09:35:59;25.80;56.90
3418;DHT22;68007;51.312;12.372;2023-07-24T09:38:27;25.90;57.00
3418;DHT22;68007;51.312;12.372;2023-07-24T09:40:56;25.90;57.10
3418;DHT22;68007;51.312;12.372;2023-07-24T09:43:25;25.90;56.90
3418;DHT22;68007;51.312;12.372;2023-07-24T09:45:56;25.90;56.70
3418;DHT22;68007;51.312;12.372;2023-07-24T09:48:24;26.00;56.90
3418;DHT22;68007;51.312;12.372;2023-07-24T09:50:54;26.00;57.20
3418;DHT22;68007;51.312;12.372;2023-07-24T09:53:26;26.10;57.00
3418;DHT22;68007;51.312;12.372;2023-07-24T09:55:59;26.10;56.80
3418;DHT22;68007;51.312;12.372;2023-07-24T09:58:28;26.10;56.70
3418;DHT22;68007;51.312;12.372;2023-07-24T10:00:58;26.10;56.70
3418;DHT22;68007;51.312;12.372;2023-07-24T10:03:26;26.20;56.50
3418;DHT22;68007;51.312;12.372;2023-07-24T10:05:53;26.20;56.60
3418;DHT22;68007;51.312;12.372;2023-07-24T10:08:21;26.20;57.00
3418;DHT22;68007;51.312;12.372;2023-07-24T10:10:49;26.20;56.70
3418;DHT22;68007;51.312;12.372;2023-07-24T10:13:21;26.30;56.50
3418;DHT22;68007;51.312;12.372;2023-07-24T10:15:49;26.30;56.40
3418;DHT22;68007;51.312;12.372;2023-07-24T10:18:24;26.30;56.50
3418;DHT22;68007;51.312;12.372;2023-07-24T10:21:00;26.30;56.40
3418;DHT22;68007;51.312;12.372;2023-07-24T10:23:28;26.40;56.60
3418;DHT22;68007;51.312;12.372;2023-07-24T10:25:55;26.50;56.50
3418;DHT22;68007;51.312;12.372;2023-07-24T10:28:31;26.50;56.20
3418;DHT22;68007;51.312;12.372;2023-07-24T10:31:01;26.50;56.20
3418;DHT22;68007;51.312;12.372;2023-07-24T10:33:31;26.60;56.80
3418;DHT22;68007;51.312;12.372;2023-07-24T10:36:06;26.70;57.00
3418;DHT22;68007;51.312;12.372;2023-07-24T10:38:37;26.70;57.40
3418;DHT22;68007;51.312;12.372;2023-07-24T10:41:06;26.80;58.20
3418;DHT22;68007;51.312;12.372;2023-07-24T10:43:44;26.80;57.20
3418;DHT22;68007;51.312;12.372;2023-07-24T10:46:12;26.90;57.20
3418;DHT22;68007;51.312;12.372;2023-07-24T10:48:44;26.90;57.10
3418;DHT22;68007;51.312;12.372;2023-07-24T10:51:12;27.00;57.10
3418;DHT22;68007;51.312;12.372;2023-07-24T10:53:43;27.00;57.90
3418;DHT22;68007;51.312;12.372;2023-07-24T10:56:11;27.00;57.30
3418;DHT22;68007;51.312;12.372;2023-07-24T10:58:39;27.00;57.10
3418;DHT22;68007;51.312;12.372;2023-07-24T11:01:07;27.10;57.40
3418;DHT22;68007;51.312;12.372;2023-07-24T11:03:36;27.10;57.20
3418;DHT22;68007;51.312;12.372;2023-07-24T11:06:10;27.10;57.30
3418;DHT22;68007;51.312;12.372;2023-07-24T11:08:39;27.10;56.90
3418;DHT22;68007;51.312;12.372;2023-07-24T11:11:07;27.10;57.20
3418;DHT22;68007;51.312;12.372;2023-07-24T11:13:35;27.20;56.90
3418;DHT22;68007;51.312;12.372;2023-07-24T11:16:08;27.20;56.60
3418;DHT22;68007;51.312;12.372;2023-07-24T11:18:44;27.30;56.80
3418;DHT22;68007;51.312;12.372;2023-07-24T11:21:14;27.30;56.30
3418;DHT22;68007;51.312;12.372;2023-07-24T11:23:47;27.20;56.60
3418;DHT22;68007;51.312;12.372;2023-07-24T11:26:14;27.30;56.70
3418;DHT22;68007;51.312;12.372;2023-07-24T11:28:42;27.30;56.70
3418;DHT22;68007;51.312;12.372;2023-07-24T11:31:10;27.30;56.40
3418;DHT22;68007;51.312;12.372;2023-07-24T11:33:39;27.30;56.70
3418;DHT22;68007;51.312;12.372;2023-07-24T11:36:08;27.40;56.60
3418;DHT22;68007;51.312;12.372;2023-07-24T11:38:37;27.40;56.10
3418;DHT22;68007;51.312;12.372;2023-07-24T11:41:05;27.40;56.20
3418;DHT22;68007;51.312;12.372;2023-07-24T11:43:33;27.50;55.80
3418;DHT22;68007;51.312;12.372;2023-07-24T11:46:00;27.50;55.70
3418;DHT22;68007;51.312;12.372;2023-07-24T11:48:27;27.50;55.90
3418;DHT22;68007;51.312;12.372;2023-07-24T11:50:56;27.50;56.00
3418;DHT22;68007;51.312;12.372;2023-07-24T11:53:26;27.60;56.10
3418;DHT22;68007;51.312;12.372;2023-07-24T11:55:57;27.60;55.80
3418;DHT22;68007;51.312;12.372;2023-07-24T11:58:26;27.60;55.80
3418;DHT22;68007;51.312;12.372;2023-07-24T12:00:54;27.70;55.80
3418;DHT22;68007;51.312;12.372;2023-07-24T12:03:23;27.70;56.10
3418;DHT22;68007;51.312;12.372;2023-07-24T12:05:51;27.80;56.20
3418;DHT22;68007;51.312;12.372;2023-07-24T12:08:20;27.80;56.00
3418;DHT22;68007;51.312;12.372;2023-07-24T12:10:49;27.90;56.60
3418;DHT22;68007;51.312;12.372;2023-07-24T12:13:18;28.00;55.60
3418;DHT22;68007;51.312;12.372;2023-07-24T12:15:46;28.00;55.80
3418;DHT22;68007;51.312;12.372;2023-07-24T12:18:14;28.00;55.60
3418;DHT22;68007;51.312;12.372;2023-07-24T12:20:42;28.10;56.00
3418;DHT22;68007;51.312;12.372;2023-07-24T12:23:09;28.20;55.50
3418;DHT22;68007;51.312;12.372;2023-07-24T12:25:37;28.30;55.20
3418;DHT22;68007;51.312;12.372;2023-07-24T12:28:04;28.40;54.70
3418;DHT22;68007;51.312;12.372;2023-07-24T12:30:33;28.40;54.80
3418;DHT22;68007;51.312;12.372;2023-07-24T12:33:00;28.50;55.20
3418;DHT22;68007;51.312;12.372;2023-07-24T12:35:28;28.50;55.00
3418;DHT22;68007;51.312;12.372;2023-07-24T12:37:55;28.60;54.50
3418;DHT22;68007;51.312;12.372;2023-07-24T12:40:23;28.70;54.50
3418;DHT22;68007;51.312;12.372;2023-07-24T12:42:51;28.80;54.40
3418;DHT22;68007;51.312;12.372;2023-07-24T12:45:18;28.80;54.10
3418;DHT22;68007;51.312;12.372;2023-07-24T12:47:47;28.90;53.80
3418;DHT22;68007;51.312;12.372;2023-07-24T12:50:15;29.00;53.90
3418;DHT22;68007;51.312;12.372;2023-07-24T12:52:43;29.00;53.40
3418;DHT22;68007;51.312;12.372;2023-07-24T12:55:10;29.10;52.70
3418;DHT22;68007;51.312;12.372;2023-07-24T12:57:38;29.10;52.20
3418;DHT22;68007;51.312;12.372;2023-07-24T13:00:06;29.10;52.60
3418;DHT22;68007;51.312;12.372;2023-07-24T13:02:35;29.00;52.30
3418;DHT22;68007;51.312;12.372;2023-07-24T13:05:04;28.90;52.10
3418;DHT22;68007;51.312;12.372;2023-07-24T13:07:32;29.00;52.80
3418;DHT22;68007;51.312;12.372;2023-07-24T13:09:59;29.00;53.50
3418;DHT22;68007;51.312;12.372;2023-07-24T13:12:27;29.00;53.60
3418;DHT22;68007;51.312;12.372;2023-07-24T13:14:54;28.90;53.20
3418;DHT22;68007;51.312;12.372;2023-07-24T13:17:22;28.90;53.10
3418;DHT22;68007;51.312;12.372;2023-07-24T13:19:49;28.90;52.80
3418;DHT22;68007;51.312;12.372;2023-07-24T13:22:18;28.80;52.90
3418;DHT22;68007;51.312;12.372;2023-07-24T13:24:46;28.80;53.60
3418;DHT22;68007;51.312;12.372;2023-07-24T13:27:13;28.80;54.10
3418;DHT22;68007;51.312;12.372;2023-07-24T13:29:40;28.80;54.50
3418;DHT22;68007;51.312;12.372;2023-07-24T13:32:08;28.80;54.80
3418;DHT22;68007;51.312;12.372;2023-07-24T13:34:36;28.80;55.50
3418;DHT22;68007;51.312;12.372;2023-07-24T13:37:03;28.70;54.80
3418;DHT22;68007;51.312;12.372;2023-07-24T13:39:32;28.60;55.00
3418;DHT22;68007;51.312;12.372;2023-07-24T13:42:00;28.60;54.80
3418;DHT22;68007;51.312;12.372;2023-07-24T13:44:28;28.60;54.80
3418;DHT22;68007;51.312;12.372;2023-07-24T13:46:55;28.60;55.00
3418;DHT22;68007;51.312;12.372;2023-07-24T13:49:23;28.60;55.10
3418;DHT22;68007;51.312;12.372;2023-07-24T13:51:50;28.70;55.00
3418;DHT22;68007;51.312;12.372;2023-07-24T13:54:18;28.70;54.80
3418;DHT22;68007;51.312;12.372;2023-07-24T13:56:47;28.70;54.80
3418;DHT22;68007;51.312;12.372;2023-07-24T13:59:14;28.70;54.80
3418;DHT22;68007;51.312;12.372;2023-07-24T14:01:42;28.70;54.60
3418;DHT22;68007;51.312;12.372;2023-07-24T14:04:09;28.70;54.80
3418;DHT22;68007;51.312;12.372;2023-07-24T14:06:38;28.80;54.30
3418;DHT22;68007;51.312;12.372;2023-07-24T14:09:05;28.70;53.80
3418;DHT22;68007;51.312;12.372;2023-07-24T14:11:33;28.60;53.10
3418;DHT22;68007;51.312;12.372;2023-07-24T14:14:02;28.60;53.60
3418;DHT22;68007;51.312;12.372;2023-07-24T14:16:29;28.60;53.70
3418;DHT22;68007;51.312;12.372;2023-07-24T14:18:57;28.60;54.10
3418;DHT22;68007;51.312;12.372;2023-07-24T14:21:24;28.60;54.60
3418;DHT22;68007;51.312;12.372;2023-07-24T14:23:52;28.60;54.80
3418;DHT22;68007;51.312;12.372;2023-07-24T14:26:19;28.60;54.90
3418;DHT22;68007;51.312;12.372;2023-07-24T14:28:47;28.60;55.10
3418;DHT22;68007;51.312;12.372;2023-07-24T14:31:15;28.60;55.20
3418;DHT22;68007;51.312;12.372;2023-07-24T14:33:43;28.60;55.20
3418;DHT22;68007;51.312;12.372;2023-07-24T14:36:10;28.70;55.40
3418;DHT22;68007;51.312;12.372;2023-07-24T14:38:38;28.70;55.60
3418;DHT22;68007;51.312;12.372;2023-07-24T14:41:05;28.70;55.70
3418;DHT22;68007;51.312;12.372;2023-07-24T14:43:33;28.70;55.40
3418;DHT22;68007;51.312;12.372;2023-07-24T14:46:00;28.80;55.50
3418;DHT22;68007;51.312;12.372;2023-07-24T14:48:29;28.80;56.00
3418;DHT22;68007;51.312;12.372;2023-07-24T14:50:57;28.80;55.40
3418;DHT22;68007;51.312;12.372;2023-07-24T14:53:24;28.80;55.50
3418;DHT22;68007;51.312;12.372;2023-07-24T14:55:52;28.90;55.50
3418;DHT22;68007;51.312;12.372;2023-07-24T14:58:19;28.90;55.50
3418;DHT22;68007;51.312;12.372;2023-07-24T15:00:47;28.90;55.10
3418;DHT22;68007;51.312;12.372;2023-07-24T15:03:14;28.90;55.10
3418;DHT22;68007;51.312;12.372;2023-07-24T15:05:43;28.90;55.30
3418;DHT22;68007;51.312;12.372;2023-07-24T15:08:10;28.90;55.00
3418;DHT22;68007;51.312;12.372;2023-07-24T15:10:38;28.90;55.00
3418;DHT22;68007;51.312;12.372;2023-07-24T15:13:09;28.90;55.20
3418;DHT22;68007;51.312;12.372;2023-07-24T15:15:36;28.90;55.20
3418;DHT22;68007;51.312;12.372;2023-07-24T15:18:04;28.80;55.30
3418;DHT22;68007;51.312;12.372;2023-07-24T15:20:32;28.90;55.30
3418;DHT22;68007;51.312;12.372;2023-07-24T15:23:01;28.80;55.10
3418;DHT22;68007;51.312;12.372;2023-07-24T15:25:28;28.80;55.00
3418;DHT22;68007;51.312;12.372;2023-07-24T15:27:56;28.80;55.10
3418;DHT22;68007;51.312;12.372;2023-07-24T15:30:23;28.90;55.90
3418;DHT22;68007;51.312;12.372;2023-07-24T15:32:51;28.90;55.60
3418;DHT22;68007;51.312;12.372;2023-07-24T15:35:18;28.90;55.20
3418;DHT22;68007;51.312;12.372;2023-07-24T15:37:48;28.90;55.10